createdAt,value
2019-04-21T10:30:32.834Z,26.00
2019-04-21T10:33:01.635Z,27.50
2019-04-21T10:35:31.081Z,28.10
2019-04-21T10:38:12.853Z,29.00
2019-04-21T10:40:33.490Z,26.70
2019-04-21T10:43:00.541Z,28.40
2019-04-21T10:45:29.150Z,27.90
2019-04-21T10:47:58.825Z,26.70
2019-04-21T10:50:28.648Z,25.90
2019-04-21T10:53:05.004Z,26.20
2019-04-21T10:55:48.645Z,25.40
2019-04-21T10:58:08.834Z,27.10
2019-04-21T11:00:39.752Z,25.30
2019-04-21T11:03:29.126Z,25.60
2019-04-21T11:06:03.270Z,26.30
2019-04-21T11:08:37.507Z,26.30
2019-04-21T11:11:03.762Z,26.00
2019-04-21T11:13:34.767Z,26.40
2019-04-21T11:16:03.572Z,26.10
2019-04-21T11:18:33.869Z,25.40
2019-04-21T11:21:02.943Z,23.40
2019-04-21T11:23:33.101Z,24.80
2019-04-21T11:26:02.259Z,24.90
2019-04-21T11:28:31.226Z,24.50
2019-04-21T11:31:00.608Z,25.10
2019-04-21T11:33:29.297Z,25.80
2019-04-21T11:35:59.099Z,24.10
2019-04-21T11:38:31.885Z,24.50
2019-04-21T11:41:00.205Z,23.20
2019-04-21T11:43:35.123Z,22.80
2019-04-21T11:46:04.546Z,23.40
2019-04-21T11:48:34.514Z,22.80
2019-04-21T11:51:04.648Z,23.30
2019-04-21T11:53:34.561Z,22.80
2019-04-21T11:56:04.768Z,23.00
2019-04-21T11:58:34.071Z,22.70
2019-04-21T12:01:05.455Z,22.40
2019-04-21T12:03:35.630Z,22.40
2019-04-21T12:06:05.779Z,21.70
2019-04-21T12:08:40.701Z,20.80
2019-04-21T12:11:05.372Z,21.50
2019-04-21T12:13:34.405Z,20.40
2019-04-21T12:16:03.255Z,22.30
2019-04-21T12:18:33.840Z,22.90
2019-04-21T12:21:03.255Z,23.30
2019-04-21T12:23:32.423Z,24.80
2019-04-21T12:26:01.533Z,22.30
2019-04-21T12:28:30.319Z,22.40
2019-04-21T12:31:00.117Z,24.00
2019-04-21T12:33:31.828Z,22.70
2019-04-21T12:36:01.921Z,21.40
2019-04-21T12:38:41.017Z,21.30
2019-04-21T12:41:02.331Z,20.50
2019-04-21T12:43:31.029Z,20.50
2019-04-21T12:46:00.064Z,21.20
2019-04-21T12:48:29.747Z,21.00
2019-04-21T12:50:59.823Z,21.70
2019-04-21T12:53:29.763Z,21.60
2019-04-21T12:55:59.914Z,22.10
2019-04-21T12:58:29.123Z,23.50
2019-04-21T13:00:58.923Z,21.50
2019-04-21T13:03:28.685Z,21.80
2019-04-21T13:05:58.094Z,20.60
2019-04-21T13:08:27.195Z,21.20
2019-04-21T13:10:56.113Z,21.50
2019-04-21T13:13:26.186Z,22.60
2019-04-21T13:15:55.785Z,22.80
2019-04-21T13:18:27.367Z,22.20
2019-04-21T13:20:56.100Z,21.80
2019-04-21T13:23:24.953Z,21.90
2019-04-21T13:25:54.176Z,23.30
2019-04-21T13:28:23.024Z,22.30
2019-04-21T13:30:51.526Z,22.10
2019-04-21T13:33:20.975Z,21.50
2019-04-21T13:35:53.113Z,22.90
2019-04-21T13:38:30.097Z,23.50
2019-04-21T13:41:17.857Z,23.20
2019-04-21T13:43:33.047Z,23.60
2019-04-21T13:46:01.878Z,23.40
2019-04-21T13:48:30.729Z,23.20
2019-04-21T13:50:59.528Z,24.50
2019-04-21T13:53:28.556Z,25.30
2019-04-21T13:55:58.492Z,24.90
2019-04-21T13:58:28.208Z,25.30
2019-04-21T14:00:57.958Z,25.90
2019-04-21T14:03:26.859Z,25.30
2019-04-21T14:05:56.180Z,25.30
2019-04-21T14:08:25.345Z,26.00
2019-04-21T14:10:55.572Z,26.20
2019-04-21T14:13:24.639Z,25.20
2019-04-21T14:15:53.867Z,24.90
2019-04-21T14:18:22.807Z,24.30
2019-04-21T14:20:51.526Z,25.00
2019-04-21T14:23:28.579Z,24.80
2019-04-21T14:25:50.358Z,24.70
2019-04-21T14:28:19.957Z,25.70
2019-04-21T14:30:50.344Z,25.10
2019-04-21T14:33:23.396Z,25.60
2019-04-21T14:35:50.593Z,24.30
2019-04-21T14:38:20.612Z,24.40
2019-04-21T14:40:50.337Z,24.60
2019-04-21T14:43:20.448Z,25.70
2019-04-21T14:46:07.481Z,23.30
2019-04-21T14:48:43.750Z,24.00
2019-04-21T14:51:16.914Z,24.00
2019-04-21T14:53:47.796Z,24.10
2019-04-21T14:56:17.482Z,24.20
2019-04-21T14:58:46.889Z,23.70
2019-04-21T15:01:15.753Z,25.00
2019-04-21T15:03:45.867Z,24.60
2019-04-21T15:06:15.623Z,24.10
2019-04-21T15:08:44.902Z,24.60
2019-04-21T15:11:14.053Z,24.90
2019-04-21T15:13:43.968Z,25.00
2019-04-21T15:16:13.032Z,25.40
2019-04-21T15:18:41.868Z,25.20
2019-04-21T15:21:11.134Z,25.60
2019-04-21T15:23:40.292Z,25.10
2019-04-21T15:26:10.293Z,25.60
2019-04-21T15:28:40.619Z,25.40
2019-04-21T15:31:12.711Z,25.20
2019-04-21T15:33:39.553Z,25.80
2019-04-21T15:36:09.055Z,26.50
2019-04-21T15:38:38.066Z,26.00
2019-04-21T15:41:10.292Z,24.40
2019-04-21T15:43:38.450Z,23.80
2019-04-21T15:46:07.248Z,24.70
2019-04-21T15:48:36.964Z,24.30
2019-04-21T15:51:08.607Z,24.40
2019-04-21T15:53:37.795Z,25.20
2019-04-21T15:56:11.172Z,26.30
2019-04-21T15:58:42.808Z,26.20
2019-04-21T16:01:30.386Z,25.50
2019-04-21T16:04:02.099Z,26.60
2019-04-21T16:06:29.711Z,28.00
2019-04-21T16:09:00.890Z,27.50
2019-04-21T16:11:28.520Z,26.80
2019-04-21T16:13:57.411Z,27.20
2019-04-21T16:16:28.594Z,27.30
2019-04-21T16:18:56.458Z,24.90
2019-04-21T16:21:26.257Z,25.00
2019-04-21T16:23:56.257Z,25.80
2019-04-21T16:26:26.643Z,25.20
2019-04-21T16:28:55.572Z,25.70
2019-04-21T16:31:24.751Z,25.90
2019-04-21T16:33:54.680Z,26.50
2019-04-21T16:36:23.422Z,27.10
2019-04-21T16:38:53.467Z,27.10
2019-04-21T16:41:22.432Z,27.20
2019-04-21T16:43:51.422Z,27.00
2019-04-21T16:46:21.107Z,26.70
2019-04-21T16:48:49.931Z,26.90
2019-04-21T16:51:18.543Z,27.60
2019-04-21T16:53:55.724Z,27.80
2019-04-21T16:56:26.894Z,28.20
2019-04-21T16:58:57.230Z,28.70
2019-04-21T17:01:29.641Z,28.60
2019-04-21T17:03:58.312Z,28.90
2019-04-21T17:06:27.136Z,28.00
2019-04-21T17:08:56.755Z,28.40
2019-04-21T17:11:30.632Z,28.50
2019-04-21T17:13:56.561Z,29.00
2019-04-21T17:17:03.661Z,29.50
2019-04-21T17:19:06.570Z,29.90
2019-04-21T17:21:27.886Z,30.10
2019-04-21T17:23:56.865Z,30.10
2019-04-21T17:26:26.779Z,30.90
2019-04-21T17:28:56.620Z,31.10
2019-04-21T17:31:26.547Z,30.80
2019-04-21T17:34:02.033Z,31.30
2019-04-21T17:36:27.174Z,31.70
2019-04-21T17:38:55.911Z,31.70
2019-04-21T17:41:33.405Z,32.00
2019-04-21T17:43:56.032Z,32.90
2019-04-21T17:46:36.640Z,32.50
2019-04-21T17:48:55.176Z,32.50
2019-04-21T17:51:25.699Z,32.90
2019-04-21T17:53:59.322Z,33.80
2019-04-21T17:56:55.198Z,33.50
2019-04-21T17:59:23.659Z,33.60
2019-04-21T18:01:49.962Z,33.70
2019-04-21T18:04:18.212Z,33.80
2019-04-21T18:06:51.628Z,34.60
2019-04-21T18:09:28.607Z,35.40
2019-04-21T18:11:53.957Z,35.90
2019-04-21T18:14:02.015Z,35.90
2019-04-21T18:16:38.118Z,35.90
2019-04-21T18:19:00.909Z,36.30
2019-04-21T18:21:54.132Z,36.40
2019-04-21T18:24:24.222Z,37.00
2019-04-21T18:26:56.583Z,40.10
2019-04-21T18:29:23.200Z,40.70
2019-04-21T18:31:54.170Z,41.30
2019-04-21T18:34:27.366Z,42.00
2019-04-21T18:36:59.139Z,42.20
2019-04-21T18:39:46.400Z,42.00
2019-04-21T18:42:22.655Z,43.90
2019-04-21T18:45:10.008Z,44.20
2019-04-21T18:47:29.073Z,45.30
2019-04-21T18:49:44.141Z,45.80
2019-04-21T18:52:23.838Z,45.50
2019-04-21T18:55:00.238Z,45.90
2019-04-21T18:57:26.482Z,46.60
2019-04-21T18:59:47.645Z,47.20
2019-04-21T19:02:18.286Z,47.90
2019-04-21T19:04:46.480Z,48.10
2019-04-21T19:07:28.911Z,48.40
2019-04-21T19:10:20.510Z,51.70
2019-04-21T19:15:02.617Z,48.40
2019-04-21T19:22:34.182Z,50.50
2019-04-21T19:25:07.339Z,51.20
2019-04-21T19:27:31.059Z,50.40
2019-04-21T19:30:19.079Z,52.30
2019-04-21T19:32:33.509Z,51.00
2019-04-21T19:34:54.930Z,51.50
2019-04-21T19:37:24.417Z,51.40
2019-04-21T19:40:03.255Z,51.40
2019-04-21T19:42:32.289Z,51.90
2019-04-21T19:45:06.210Z,51.90
2019-04-21T19:47:41.088Z,52.90
2019-04-21T19:50:12.113Z,51.90
2019-04-21T19:52:34.651Z,52.20
2019-04-21T19:54:52.611Z,52.40
2019-04-21T19:57:22.938Z,53.30
2019-04-21T19:59:55.316Z,53.30
2019-04-21T20:02:22.425Z,54.10
2019-04-21T20:04:59.049Z,54.60
2019-04-21T20:07:38.242Z,54.90
2019-04-21T20:10:14.395Z,54.70
2019-04-21T20:12:41.313Z,55.10
2019-04-21T20:15:23.243Z,56.20
2019-04-21T20:17:36.579Z,57.40
2019-04-21T20:20:03.738Z,56.50
2019-04-21T20:22:36.849Z,58.00
2019-04-21T20:25:09.892Z,58.30
2019-04-21T20:27:45.527Z,58.50
2019-04-21T20:30:27.198Z,57.80
2019-04-21T20:32:56.560Z,57.70
2019-04-21T20:35:38.253Z,58.20
2019-04-21T20:37:57.707Z,58.40
2019-04-21T20:40:25.086Z,59.20
2019-04-21T20:42:58.856Z,60.20
2019-04-21T20:45:48.803Z,61.60
2019-04-21T20:47:48.966Z,62.80
2019-04-21T20:50:29.837Z,63.50
2019-04-21T20:52:58.298Z,65.70
2019-04-21T20:55:23.613Z,66.60
2019-04-21T20:57:59.059Z,67.20
2019-04-21T21:00:39.148Z,66.00
2019-04-21T21:03:09.224Z,68.80
2019-04-21T21:05:27.486Z,69.40
2019-04-21T21:08:14.958Z,70.40
2019-04-21T21:10:34.697Z,72.30
2019-04-21T21:13:17.147Z,75.30
2019-04-21T21:15:43.091Z,76.80
2019-04-21T21:18:15.760Z,78.10
2019-04-21T21:20:37.729Z,80.40
2019-04-21T21:23:04.002Z,81.40
2019-04-21T21:25:45.202Z,81.20
2019-04-21T21:28:03.417Z,82.30
2019-04-21T21:30:34.609Z,81.70
2019-04-21T21:33:12.705Z,83.30
2019-04-21T21:35:37.244Z,84.80
2019-04-21T21:38:13.457Z,85.50
2019-04-21T21:40:42.012Z,87.90
2019-04-21T21:42:57.269Z,88.10
2019-04-21T21:45:30.361Z,90.30
2019-04-21T21:48:15.032Z,90.30
2019-04-21T21:50:38.632Z,90.90
2019-04-21T21:53:03.256Z,91.20
2019-04-21T21:55:30.715Z,89.80
2019-04-21T21:58:03.479Z,90.00
2019-04-21T22:00:32.230Z,89.80
2019-04-21T22:03:11.990Z,90.60
2019-04-21T22:05:42.317Z,90.40
2019-04-21T22:08:02.544Z,90.70
2019-04-21T22:10:31.431Z,91.50
2019-04-21T22:13:08.252Z,91.40
2019-04-21T22:15:33.708Z,91.70
2019-04-21T22:18:16.787Z,91.40
2019-04-21T22:20:50.726Z,90.80
2019-04-21T22:23:09.864Z,91.70
2019-04-21T22:25:36.784Z,91.90
2019-04-21T22:28:03.889Z,91.20
2019-04-21T22:30:38.793Z,91.60
2019-04-21T22:33:08.302Z,91.70
2019-04-21T22:35:42.224Z,91.40
2019-04-21T22:38:19.046Z,92.20
2019-04-21T22:40:50.809Z,93.00
2019-04-21T22:43:18.531Z,92.70
2019-04-21T22:45:35.651Z,93.40
2019-04-21T22:48:12.403Z,93.90
2019-04-21T22:50:38.332Z,93.90
2019-04-21T22:53:08.466Z,94.20
2019-04-21T22:55:38.896Z,93.90
2019-04-21T22:58:07.807Z,94.10
2019-04-21T23:00:44.443Z,93.00
2019-04-21T23:03:13.614Z,93.60
2019-04-21T23:05:42.715Z,94.50
2019-04-21T23:08:09.258Z,95.00
2019-04-21T23:10:41.461Z,94.70
2019-04-21T23:13:13.106Z,94.60
2019-04-21T23:15:47.089Z,95.00
2019-04-21T23:18:27.160Z,94.90
2019-04-21T23:21:00.309Z,95.00
2019-04-21T23:23:29.752Z,95.10
2019-04-21T23:25:56.071Z,95.10
2019-04-21T23:28:35.719Z,94.90
2019-04-21T23:31:05.600Z,95.00
2019-04-21T23:33:15.722Z,94.90
2019-04-21T23:35:45.718Z,95.80
2019-04-21T23:38:14.334Z,96.30
2019-04-21T23:40:48.761Z,96.00
2019-04-21T23:43:18.767Z,95.20
2019-04-21T23:45:46.211Z,95.50
2019-04-21T23:48:25.916Z,96.80
2019-04-21T23:50:52.366Z,96.60
2019-04-21T23:53:15.359Z,97.20
2019-04-21T23:55:45.216Z,97.60
2019-04-21T23:58:20.196Z,97.60
